sensor_id;sensor_type;location;lat;lon;timestamp;P1;durP1;ratioP1;P2;durP2;ratioP2
24407;SDS011;12542;50.924;4.516;2022-12-18T00:01:33;53.55;;;22.55;;
24407;SDS011;12542;50.924;4.516;2022-12-18T00:04:01;44.58;;;19.52;;
24407;SDS011;12542;50.924;4.516;2022-12-18T00:06:31;56.17;;;21.75;;
24407;SDS011;12542;50.924;4.516;2022-12-18T00:08:58;43.67;;;19.65;;
24407;SDS011;12542;50.924;4.516;2022-12-18T00:11:28;49.40;;;20.23;;
24407;SDS011;12542;50.924;4.516;2022-12-18T00:13:55;56.17;;;21.80;;
24407;SDS011;12542;50.924;4.516;2022-12-18T00:16:23;50.88;;;20.58;;
24407;SDS011;12542;50.924;4.516;2022-12-18T00:18:52;47.15;;;21.30;;
24407;SDS011;12542;50.924;4.516;2022-12-18T00:21:20;52.67;;;22.83;;
24407;SDS011;12542;50.924;4.516;2022-12-18T00:23:46;50.45;;;21.40;;
24407;SDS011;12542;50.924;4.516;2022-12-18T00:26:14;54.70;;;21.08;;
24407;SDS011;12542;50.924;4.516;2022-12-18T00:28:45;56.72;;;22.25;;
24407;SDS011;12542;50.924;4.516;2022-12-18T00:31:16;48.55;;;21.67;;
24407;SDS011;12542;50.924;4.516;2022-12-18T00:33:48;57.70;;;22.02;;
24407;SDS011;12542;50.924;4.516;2022-12-18T00:36:18;52.25;;;22.25;;
24407;SDS011;12542;50.924;4.516;2022-12-18T00:38:45;56.00;;;23.17;;
24407;SDS011;12542;50.924;4.516;2022-12-18T00:41:12;55.38;;;21.60;;
24407;SDS011;12542;50.924;4.516;2022-12-18T00:43:59;55.55;;;23.20;;
24407;SDS011;12542;50.924;4.516;2022-12-18T00:46:27;54.17;;;21.58;;
24407;SDS011;12542;50.924;4.516;2022-12-18T00:48:53;53.20;;;21.30;;
24407;SDS011;12542;50.924;4.516;2022-12-18T00:51:19;54.20;;;22.27;;
24407;SDS011;12542;50.924;4.516;2022-12-18T00:53:44;55.55;;;22.33;;
24407;SDS011;12542;50.924;4.516;2022-12-18T00:56:10;58.95;;;23.38;;
24407;SDS011;12542;50.924;4.516;2022-12-18T00:58:36;47.72;;;21.20;;
24407;SDS011;12542;50.924;4.516;2022-12-18T01:01:03;51.45;;;19.75;;
24407;SDS011;12542;50.924;4.516;2022-12-18T01:03:29;43.47;;;20.13;;
24407;SDS011;12542;50.924;4.516;2022-12-18T01:05:55;51.50;;;20.10;;
24407;SDS011;12542;50.924;4.516;2022-12-18T01:08:21;51.70;;;20.85;;
24407;SDS011;12542;50.924;4.516;2022-12-18T01:10:48;50.08;;;21.67;;
24407;SDS011;12542;50.924;4.516;2022-12-18T01:13:14;55.40;;;24.73;;
24407;SDS011;12542;50.924;4.516;2022-12-18T01:15:40;50.88;;;21.85;;
24407;SDS011;12542;50.924;4.516;2022-12-18T01:18:06;50.83;;;21.33;;
24407;SDS011;12542;50.924;4.516;2022-12-18T01:20:32;52.78;;;22.98;;
24407;SDS011;12542;50.924;4.516;2022-12-18T01:22:58;53.72;;;20.77;;
24407;SDS011;12542;50.924;4.516;2022-12-18T01:25:23;47.92;;;20.27;;
24407;SDS011;12542;50.924;4.516;2022-12-18T01:27:50;50.58;;;22.23;;
24407;SDS011;12542;50.924;4.516;2022-12-18T01:30:16;49.90;;;22.52;;
24407;SDS011;12542;50.924;4.516;2022-12-18T01:32:41;47.25;;;21.58;;
24407;SDS011;12542;50.924;4.516;2022-12-18T01:35:07;51.92;;;22.38;;
24407;SDS011;12542;50.924;4.516;2022-12-18T01:38:11;46.58;;;18.80;;
24407;SDS011;12542;50.924;4.516;2022-12-18T01:40:37;47.60;;;20.05;;
24407;SDS011;12542;50.924;4.516;2022-12-18T01:43:03;47.05;;;17.92;;
24407;SDS011;12542;50.924;4.516;2022-12-18T01:45:31;43.20;;;18.70;;
24407;SDS011;12542;50.924;4.516;2022-12-18T01:48:01;41.72;;;18.33;;
24407;SDS011;12542;50.924;4.516;2022-12-18T01:53:10;45.22;;;17.95;;
24407;SDS011;12542;50.924;4.516;2022-12-18T01:55:43;47.28;;;19.27;;
24407;SDS011;12542;50.924;4.516;2022-12-18T01:58:12;43.30;;;18.20;;
24407;SDS011;12542;50.924;4.516;2022-12-18T02:00:38;37.78;;;17.17;;
24407;SDS011;12542;50.924;4.516;2022-12-18T02:03:04;40.72;;;17.67;;
24407;SDS011;12542;50.924;4.516;2022-12-18T02:05:36;41.15;;;17.23;;
24407;SDS011;12542;50.924;4.516;2022-12-18T02:17:02;50.85;;;20.65;;
24407;SDS011;12542;50.924;4.516;2022-12-18T02:19:47;50.67;;;20.17;;
24407;SDS011;12542;50.924;4.516;2022-12-18T02:25:05;46.25;;;18.33;;
24407;SDS011;12542;50.924;4.516;2022-12-18T02:27:46;40.05;;;17.52;;
24407;SDS011;12542;50.924;4.516;2022-12-18T02:30:14;50.40;;;19.73;;
24407;SDS011;12542;50.924;4.516;2022-12-18T02:32:42;48.15;;;20.92;;
24407;SDS011;12542;50.924;4.516;2022-12-18T02:35:22;51.50;;;20.63;;
24407;SDS011;12542;50.924;4.516;2022-12-18T02:37:50;44.60;;;20.27;;
24407;SDS011;12542;50.924;4.516;2022-12-18T02:40:17;44.15;;;19.58;;
24407;SDS011;12542;50.924;4.516;2022-12-18T02:42:44;52.90;;;21.92;;
24407;SDS011;12542;50.924;4.516;2022-12-18T02:45:10;48.10;;;19.23;;
24407;SDS011;12542;50.924;4.516;2022-12-18T02:47:39;46.47;;;19.77;;
24407;SDS011;12542;50.924;4.516;2022-12-18T02:53:16;42.85;;;18.02;;
24407;SDS011;12542;50.924;4.516;2022-12-18T03:04:09;36.08;;;14.38;;
24407;SDS011;12542;50.924;4.516;2022-12-18T03:06:47;43.42;;;16.98;;
24407;SDS011;12542;50.924;4.516;2022-12-18T03:09:18;39.22;;;17.45;;
24407;SDS011;12542;50.924;4.516;2022-12-18T03:11:48;42.20;;;17.00;;
24407;SDS011;12542;50.924;4.516;2022-12-18T03:15:01;33.97;;;15.65;;
24407;SDS011;12542;50.924;4.516;2022-12-18T03:17:35;38.33;;;16.63;;
24407;SDS011;12542;50.924;4.516;2022-12-18T03:20:06;37.78;;;17.02;;
24407;SDS011;12542;50.924;4.516;2022-12-18T03:22:39;35.88;;;15.93;;
24407;SDS011;12542;50.924;4.516;2022-12-18T03:25:09;39.15;;;17.23;;
24407;SDS011;12542;50.924;4.516;2022-12-18T03:27:40;45.78;;;18.45;;
24407;SDS011;12542;50.924;4.516;2022-12-18T03:30:11;36.38;;;16.52;;
24407;SDS011;12542;50.924;4.516;2022-12-18T03:32:40;35.25;;;15.68;;
24407;SDS011;12542;50.924;4.516;2022-12-18T03:35:08;40.58;;;16.75;;
24407;SDS011;12542;50.924;4.516;2022-12-18T03:37:37;40.63;;;17.10;;
24407;SDS011;12542;50.924;4.516;2022-12-18T03:40:06;38.65;;;16.75;;
24407;SDS011;12542;50.924;4.516;2022-12-18T03:42:37;34.22;;;15.60;;
24407;SDS011;12542;50.924;4.516;2022-12-18T03:45:20;33.70;;;15.30;;
24407;SDS011;12542;50.924;4.516;2022-12-18T03:51:16;34.65;;;15.85;;
24407;SDS011;12542;50.924;4.516;2022-12-18T03:53:58;34.15;;;14.50;;
24407;SDS011;12542;50.924;4.516;2022-12-18T03:56:28;40.85;;;16.67;;
24407;SDS011;12542;50.924;4.516;2022-12-18T03:58:58;35.90;;;15.13;;
24407;SDS011;12542;50.924;4.516;2022-12-18T04:01:28;40.72;;;17.05;;
24407;SDS011;12542;50.924;4.516;2022-12-18T04:03:59;36.65;;;16.15;;
24407;SDS011;12542;50.924;4.516;2022-12-18T04:06:27;38.88;;;15.70;;
24407;SDS011;12542;50.924;4.516;2022-12-18T04:08:54;40.75;;;17.30;;
24407;SDS011;12542;50.924;4.516;2022-12-18T04:11:20;34.35;;;14.27;;
24407;SDS011;12542;50.924;4.516;2022-12-18T04:13:46;37.85;;;14.23;;
24407;SDS011;12542;50.924;4.516;2022-12-18T04:16:12;40.35;;;16.35;;
24407;SDS011;12542;50.924;4.516;2022-12-18T04:18:37;36.55;;;15.98;;
24407;SDS011;12542;50.924;4.516;2022-12-18T04:21:03;34.63;;;15.90;;
24407;SDS011;12542;50.924;4.516;2022-12-18T04:23:29;35.80;;;15.68;;
24407;SDS011;12542;50.924;4.516;2022-12-18T04:25:54;33.53;;;14.90;;
24407;SDS011;12542;50.924;4.516;2022-12-18T04:28:20;35.92;;;14.55;;
24407;SDS011;12542;50.924;4.516;2022-12-18T04:30:46;34.58;;;15.43;;
24407;SDS011;12542;50.924;4.516;2022-12-18T04:33:13;37.97;;;15.70;;
24407;SDS011;12542;50.924;4.516;2022-12-18T04:35:39;34.33;;;15.40;;
24407;SDS011;12542;50.924;4.516;2022-12-18T04:38:08;34.10;;;15.55;;
24407;SDS011;12542;50.924;4.516;2022-12-18T04:40:37;32.15;;;14.55;;
24407;SDS011;12542;50.924;4.516;2022-12-18T04:43:03;39.17;;;15.43;;
24407;SDS011;12542;50.924;4.516;2022-12-18T04:45:32;34.85;;;16.67;;
24407;SDS011;12542;50.924;4.516;2022-12-18T04:47:59;36.30;;;16.15;;
24407;SDS011;12542;50.924;4.516;2022-12-18T04:50:26;37.28;;;15.90;;
24407;SDS011;12542;50.924;4.516;2022-12-18T04:52:52;40.00;;;16.35;;
24407;SDS011;12542;50.924;4.516;2022-12-18T04:55:18;40.90;;;16.90;;
24407;SDS011;12542;50.924;4.516;2022-12-18T04:57:44;35.42;;;16.58;;
24407;SDS011;12542;50.924;4.516;2022-12-18T05:00:10;39.08;;;17.17;;
24407;SDS011;12542;50.924;4.516;2022-12-18T05:02:37;34.47;;;15.25;;
24407;SDS011;12542;50.924;4.516;2022-12-18T05:05:02;39.70;;;15.43;;
24407;SDS011;12542;50.924;4.516;2022-12-18T05:07:29;33.25;;;15.07;;
24407;SDS011;12542;50.924;4.516;2022-12-18T05:09:54;29.17;;;14.52;;
24407;SDS011;12542;50.924;4.516;2022-12-18T05:12:20;35.90;;;16.35;;
24407;SDS011;12542;50.924;4.516;2022-12-18T05:14:49;36.25;;;15.40;;
24407;SDS011;12542;50.924;4.516;2022-12-18T05:17:14;35.95;;;14.80;;
24407;SDS011;12542;50.924;4.516;2022-12-18T05:19:40;38.88;;;14.73;;
24407;SDS011;12542;50.924;4.516;2022-12-18T05:22:08;37.58;;;15.02;;
24407;SDS011;12542;50.924;4.516;2022-12-18T05:24:35;32.45;;;14.40;;
24407;SDS011;12542;50.924;4.516;2022-12-18T05:27:01;33.13;;;14.55;;
24407;SDS011;12542;50.924;4.516;2022-12-18T05:29:26;32.65;;;14.27;;
24407;SDS011;12542;50.924;4.516;2022-12-18T05:31:52;31.15;;;14.90;;
24407;SDS011;12542;50.924;4.516;2022-12-18T05:34:19;34.38;;;14.90;;
24407;SDS011;12542;50.924;4.516;2022-12-18T05:36:45;31.95;;;13.75;;
24407;SDS011;12542;50.924;4.516;2022-12-18T05:39:11;32.92;;;13.98;;
24407;SDS011;12542;50.924;4.516;2022-12-18T05:41:37;34.08;;;14.80;;
24407;SDS011;12542;50.924;4.516;2022-12-18T05:44:03;30.75;;;14.55;;
24407;SDS011;12542;50.924;4.516;2022-12-18T05:46:30;37.88;;;14.10;;
24407;SDS011;12542;50.924;4.516;2022-12-18T05:48:58;27.17;;;13.27;;
24407;SDS011;12542;50.924;4.516;2022-12-18T05:51:25;27.90;;;12.82;;
24407;SDS011;12542;50.924;4.516;2022-12-18T05:53:51;32.03;;;13.80;;
24407;SDS011;12542;50.924;4.516;2022-12-18T05:56:19;32.55;;;14.35;;
24407;SDS011;12542;50.924;4.516;2022-12-18T05:58:46;33.33;;;14.57;;
24407;SDS011;12542;50.924;4.516;2022-12-18T06:01:17;38.35;;;15.57;;
24407;SDS011;12542;50.924;4.516;2022-12-18T06:03:46;41.90;;;20.20;;
24407;SDS011;12542;50.924;4.516;2022-12-18T06:06:13;38.22;;;16.92;;
24407;SDS011;12542;50.924;4.516;2022-12-18T06:08:41;38.28;;;18.40;;
24407;SDS011;12542;50.924;4.516;2022-12-18T06:11:07;35.35;;;16.77;;
24407;SDS011;12542;50.924;4.516;2022-12-18T06:13:33;29.48;;;13.60;;
24407;SDS011;12542;50.924;4.516;2022-12-18T06:16:01;32.20;;;15.35;;
24407;SDS011;12542;50.924;4.516;2022-12-18T06:18:28;36.88;;;15.93;;
24407;SDS011;12542;50.924;4.516;2022-12-18T06:20:55;30.92;;;14.25;;
24407;SDS011;12542;50.924;4.516;2022-12-18T06:23:21;30.67;;;14.13;;
24407;SDS011;12542;50.924;4.516;2022-12-18T06:25:47;31.27;;;15.32;;
24407;SDS011;12542;50.924;4.516;2022-12-18T06:28:13;36.10;;;15.63;;
24407;SDS011;12542;50.924;4.516;2022-12-18T06:30:39;32.22;;;13.93;;
24407;SDS011;12542;50.924;4.516;2022-12-18T06:33:05;35.58;;;14.65;;
24407;SDS011;12542;50.924;4.516;2022-12-18T06:35:31;37.25;;;15.27;;
24407;SDS011;12542;50.924;4.516;2022-12-18T06:37:57;36.63;;;15.52;;
24407;SDS011;12542;50.924;4.516;2022-12-18T06:40:25;34.35;;;14.88;;
24407;SDS011;12542;50.924;4.516;2022-12-18T06:42:51;50.80;;;16.95;;
24407;SDS011;12542;50.924;4.516;2022-12-18T06:45:17;31.80;;;14.80;;
24407;SDS011;12542;50.924;4.516;2022-12-18T06:47:45;32.53;;;15.52;;
24407;SDS011;12542;50.924;4.516;2022-12-18T06:50:13;29.55;;;13.63;;
24407;SDS011;12542;50.924;4.516;2022-12-18T06:52:39;32.10;;;14.43;;
24407;SDS011;12542;50.924;4.516;2022-12-18T06:55:09;38.25;;;15.25;;
24407;SDS011;12542;50.924;4.516;2022-12-18T06:57:35;37.08;;;14.63;;
24407;SDS011;12542;50.924;4.516;2022-12-18T07:00:02;30.10;;;13.82;;
24407;SDS011;12542;50.924;4.516;2022-12-18T07:02:29;31.90;;;14.55;;
24407;SDS011;12542;50.924;4.516;2022-12-18T07:04:54;33.35;;;14.20;;
24407;SDS011;12542;50.924;4.516;2022-12-18T07:07:20;30.17;;;14.45;;
24407;SDS011;12542;50.924;4.516;2022-12-18T07:09:46;28.73;;;13.98;;
24407;SDS011;12542;50.924;4.516;2022-12-18T07:12:11;36.55;;;15.20;;
24407;SDS011;12542;50.924;4.516;2022-12-18T07:14:37;31.35;;;14.93;;
24407;SDS011;12542;50.924;4.516;2022-12-18T07:17:03;33.72;;;15.32;;
24407;SDS011;12542;50.924;4.516;2022-12-18T07:19:29;40.38;;;15.65;;
24407;SDS011;12542;50.924;4.516;2022-12-18T07:21:54;38.40;;;15.90;;
24407;SDS011;12542;50.924;4.516;2022-12-18T07:24:20;37.13;;;15.38;;
24407;SDS011;12542;50.924;4.516;2022-12-18T07:26:46;35.72;;;14.85;;
24407;SDS011;12542;50.924;4.516;2022-12-18T07:29:12;32.72;;;15.82;;
24407;SDS011;12542;50.924;4.516;2022-12-18T07:31:38;40.00;;;17.38;;
24407;SDS011;12542;50.924;4.516;2022-12-18T07:34:04;32.15;;;15.40;;
24407;SDS011;12542;50.924;4.516;2022-12-18T07:36:30;33.85;;;14.80;;
24407;SDS011;12542;50.924;4.516;2022-12-18T07:38:56;35.38;;;14.98;;
24407;SDS011;12542;50.924;4.516;2022-12-18T07:41:23;26.88;;;13.95;;
24407;SDS011;12542;50.924;4.516;2022-12-18T07:43:48;34.35;;;13.15;;
24407;SDS011;12542;50.924;4.516;2022-12-18T07:46:15;30.13;;;14.68;;
24407;SDS011;12542;50.924;4.516;2022-12-18T07:48:42;33.85;;;14.85;;
24407;SDS011;12542;50.924;4.516;2022-12-18T07:51:08;30.20;;;14.07;;
24407;SDS011;12542;50.924;4.516;2022-12-18T07:53:34;30.73;;;14.35;;
24407;SDS011;12542;50.924;4.516;2022-12-18T07:56:02;28.88;;;13.48;;
24407;SDS011;12542;50.924;4.516;2022-12-18T07:58:33;34.40;;;17.25;;
24407;SDS011;12542;50.924;4.516;2022-12-18T08:01:04;29.95;;;15.90;;
24407;SDS011;12542;50.924;4.516;2022-12-18T08:03:34;32.20;;;15.68;;
24407;SDS011;12542;50.924;4.516;2022-12-18T08:06:04;38.28;;;16.55;;
24407;SDS011;12542;50.924;4.516;2022-12-18T08:08:31;37.08;;;14.63;;
24407;SDS011;12542;50.924;4.516;2022-12-18T08:11:00;44.83;;;18.15;;
24407;SDS011;12542;50.924;4.516;2022-12-18T08:13:26;40.15;;;16.02;;
24407;SDS011;12542;50.924;4.516;2022-12-18T08:16:10;39.20;;;16.92;;
24407;SDS011;12542;50.924;4.516;2022-12-18T08:18:37;37.65;;;15.75;;
24407;SDS011;12542;50.924;4.516;2022-12-18T08:21:10;38.60;;;15.80;;
24407;SDS011;12542;50.924;4.516;2022-12-18T08:23:37;37.38;;;16.67;;
24407;SDS011;12542;50.924;4.516;2022-12-18T08:26:03;42.38;;;17.05;;
24407;SDS011;12542;50.924;4.516;2022-12-18T08:28:29;38.83;;;16.92;;
24407;SDS011;12542;50.924;4.516;2022-12-18T08:30:55;34.08;;;17.27;;
24407;SDS011;12542;50.924;4.516;2022-12-18T08:33:21;40.55;;;17.98;;
24407;SDS011;12542;50.924;4.516;2022-12-18T08:35:47;30.80;;;14.88;;
24407;SDS011;12542;50.924;4.516;2022-12-18T08:38:12;31.20;;;13.93;;
24407;SDS011;12542;50.924;4.516;2022-12-18T08:40:39;26.02;;;13.32;;
24407;SDS011;12542;50.924;4.516;2022-12-18T08:43:08;36.60;;;16.13;;
24407;SDS011;12542;50.924;4.516;2022-12-18T08:45:53;33.50;;;15.18;;
24407;SDS011;12542;50.924;4.516;2022-12-18T08:48:19;34.10;;;16.42;;
24407;SDS011;12542;50.924;4.516;2022-12-18T08:50:55;32.42;;;16.27;;
24407;SDS011;12542;50.924;4.516;2022-12-18T08:53:24;31.63;;;16.13;;
24407;SDS011;12542;50.924;4.516;2022-12-18T08:55:51;40.42;;;16.63;;
24407;SDS011;12542;50.924;4.516;2022-12-18T08:58:17;30.40;;;14.48;;
24407;SDS011;12542;50.924;4.516;2022-12-18T09:00:43;29.42;;;15.13;;
24407;SDS011;12542;50.924;4.516;2022-12-18T09:03:12;33.05;;;15.25;;
24407;SDS011;12542;50.924;4.516;2022-12-18T09:05:39;32.88;;;15.30;;
24407;SDS011;12542;50.924;4.516;2022-12-18T09:08:05;34.42;;;18.25;;
24407;SDS011;12542;50.924;4.516;2022-12-18T09:10:31;29.17;;;14.05;;
24407;SDS011;12542;50.924;4.516;2022-12-18T09:12:57;25.17;;;11.82;;
24407;SDS011;12542;50.924;4.516;2022-12-18T09:15:23;27.63;;;13.45;;
24407;SDS011;12542;50.924;4.516;2022-12-18T09:17:49;20.38;;;9.90;;
24407;SDS011;12542;50.924;4.516;2022-12-18T09:20:15;18.15;;;9.63;;
24407;SDS011;12542;50.924;4.516;2022-12-18T09:22:41;16.30;;;7.65;;
24407;SDS011;12542;50.924;4.516;2022-12-18T09:25:09;12.13;;;6.43;;
24407;SDS011;12542;50.924;4.516;2022-12-18T09:27:35;18.77;;;9.77;;
24407;SDS011;12542;50.924;4.516;2022-12-18T09:30:02;21.48;;;8.32;;
24407;SDS011;12542;50.924;4.516;2022-12-18T09:32:28;17.73;;;9.13;;
24407;SDS011;12542;50.924;4.516;2022-12-18T09:34:54;18.50;;;9.25;;
24407;SDS011;12542;50.924;4.516;2022-12-18T09:37:20;14.63;;;8.35;;
24407;SDS011;12542;50.924;4.516;2022-12-18T09:39:45;16.63;;;8.88;;
24407;SDS011;12542;50.924;4.516;2022-12-18T09:42:17;17.08;;;9.00;;
24407;SDS011;12542;50.924;4.516;2022-12-18T09:44:50;20.73;;;9.00;;
24407;SDS011;12542;50.924;4.516;2022-12-18T09:49:50;13.07;;;7.60;;
24407;SDS011;12542;50.924;4.516;2022-12-18T09:52:25;16.33;;;6.85;;
24407;SDS011;12542;50.924;4.516;2022-12-18T09:55:00;15.45;;;7.55;;
24407;SDS011;12542;50.924;4.516;2022-12-18T09:57:30;13.55;;;7.68;;
24407;SDS011;12542;50.924;4.516;2022-12-18T10:00:02;16.45;;;7.53;;
24407;SDS011;12542;50.924;4.516;2022-12-18T10:02:40;15.50;;;8.57;;
24407;SDS011;12542;50.924;4.516;2022-12-18T10:05:13;16.88;;;8.60;;
24407;SDS011;12542;50.924;4.516;2022-12-18T10:13:13;13.13;;;6.88;;
24407;SDS011;12542;50.924;4.516;2022-12-18T10:16:19;15.25;;;7.70;;
24407;SDS011;12542;50.924;4.516;2022-12-18T10:21:32;16.25;;;7.90;;
24407;SDS011;12542;50.924;4.516;2022-12-18T10:26:36;14.23;;;6.82;;
24407;SDS011;12542;50.924;4.516;2022-12-18T10:29:04;15.50;;;7.70;;
24407;SDS011;12542;50.924;4.516;2022-12-18T10:31:42;18.38;;;9.00;;
24407;SDS011;12542;50.924;4.516;2022-12-18T10:34:12;18.05;;;9.30;;
24407;SDS011;12542;50.924;4.516;2022-12-18T10:36:38;16.55;;;7.65;;
24407;SDS011;12542;50.924;4.516;2022-12-18T10:39:14;16.85;;;8.45;;
24407;SDS011;12542;50.924;4.516;2022-12-18T10:41:48;15.07;;;7.60;;
24407;SDS011;12542;50.924;4.516;2022-12-18T10:44:20;15.32;;;7.60;;
24407;SDS011;12542;50.924;4.516;2022-12-18T10:46:49;17.45;;;9.20;;
24407;SDS011;12542;50.924;4.516;2022-12-18T10:49:19;20.67;;;9.50;;
24407;SDS011;12542;50.924;4.516;2022-12-18T10:52:16;16.95;;;8.90;;
24407;SDS011;12542;50.924;4.516;2022-12-18T10:54:51;19.70;;;9.73;;
24407;SDS011;12542;50.924;4.516;2022-12-18T11:00:21;17.38;;;9.77;;
24407;SDS011;12542;50.924;4.516;2022-12-18T11:02:55;17.02;;;8.93;;
24407;SDS011;12542;50.924;4.516;2022-12-18T11:05:34;16.98;;;8.70;;
24407;SDS011;12542;50.924;4.516;2022-12-18T11:08:01;17.73;;;8.70;;
24407;SDS011;12542;50.924;4.516;2022-12-18T11:12:55;25.30;;;11.25;;
24407;SDS011;12542;50.924;4.516;2022-12-18T11:15:33;21.65;;;10.02;;
24407;SDS011;12542;50.924;4.516;2022-12-18T11:17:59;31.80;;;13.70;;
24407;SDS011;12542;50.924;4.516;2022-12-18T11:20:32;22.30;;;10.02;;
24407;SDS011;12542;50.924;4.516;2022-12-18T11:23:21;20.17;;;10.02;;
24407;SDS011;12542;50.924;4.516;2022-12-18T11:25:55;21.05;;;10.35;;
24407;SDS011;12542;50.924;4.516;2022-12-18T11:28:34;21.73;;;10.07;;
24407;SDS011;12542;50.924;4.516;2022-12-18T11:34:10;19.17;;;10.07;;
24407;SDS011;12542;50.924;4.516;2022-12-18T11:36:38;22.25;;;11.20;;
24407;SDS011;12542;50.924;4.516;2022-12-18T11:41:50;17.70;;;9.57;;
24407;SDS011;12542;50.924;4.516;2022-12-18T11:44:48;20.92;;;10.88;;
24407;SDS011;12542;50.924;4.516;2022-12-18T11:47:18;25.48;;;11.88;;
24407;SDS011;12542;50.924;4.516;2022-12-18T11:52:28;27.92;;;13.45;;
24407;SDS011;12542;50.924;4.516;2022-12-18T11:55:13;29.20;;;14.68;;
24407;SDS011;12542;50.924;4.516;2022-12-18T12:00:16;23.13;;;11.80;;
24407;SDS011;12542;50.924;4.516;2022-12-18T12:05:28;34.75;;;15.30;;
24407;SDS011;12542;50.924;4.516;2022-12-18T12:08:26;28.10;;;12.73;;
24407;SDS011;12542;50.924;4.516;2022-12-18T12:11:02;22.05;;;10.50;;
24407;SDS011;12542;50.924;4.516;2022-12-18T12:19:41;24.27;;;13.27;;
24407;SDS011;12542;50.924;4.516;2022-12-18T12:30:03;26.30;;;13.35;;
24407;SDS011;12542;50.924;4.516;2022-12-18T12:40:31;27.95;;;13.02;;
24407;SDS011;12542;50.924;4.516;2022-12-18T12:43:27;21.50;;;11.80;;
24407;SDS011;12542;50.924;4.516;2022-12-18T12:46:06;22.45;;;11.48;;
24407;SDS011;12542;50.924;4.516;2022-12-18T12:48:44;22.13;;;11.20;;
24407;SDS011;12542;50.924;4.516;2022-12-18T12:53:50;21.55;;;11.40;;
24407;SDS011;12542;50.924;4.516;2022-12-18T12:56:19;24.17;;;13.15;;
24407;SDS011;12542;50.924;4.516;2022-12-18T13:04:18;24.42;;;12.68;;
24407;SDS011;12542;50.924;4.516;2022-12-18T13:07:00;24.88;;;13.90;;
24407;SDS011;12542;50.924;4.516;2022-12-18T13:12:54;21.15;;;11.38;;
24407;SDS011;12542;50.924;4.516;2022-12-18T13:31:57;26.13;;;12.98;;
24407;SDS011;12542;50.924;4.516;2022-12-18T13:34:22;22.30;;;11.50;;
24407;SDS011;12542;50.924;4.516;2022-12-18T13:36:50;26.73;;;13.05;;
24407;SDS011;12542;50.924;4.516;2022-12-18T13:41:51;24.30;;;11.73;;
24407;SDS011;12542;50.924;4.516;2022-12-18T13:44:57;25.52;;;12.50;;
24407;SDS011;12542;50.924;4.516;2022-12-18T13:47:33;25.08;;;12.50;;
24407;SDS011;12542;50.924;4.516;2022-12-18T13:50:23;24.80;;;12.30;;
24407;SDS011;12542;50.924;4.516;2022-12-18T13:52:51;29.27;;;12.02;;
24407;SDS011;12542;50.924;4.516;2022-12-18T13:55:19;28.45;;;11.45;;
24407;SDS011;12542;50.924;4.516;2022-12-18T13:57:45;28.42;;;12.50;;
24407;SDS011;12542;50.924;4.516;2022-12-18T14:00:25;24.70;;;12.40;;
24407;SDS011;12542;50.924;4.516;2022-12-18T14:02:53;29.65;;;12.52;;
24407;SDS011;12542;50.924;4.516;2022-12-18T14:05:25;27.90;;;13.20;;
24407;SDS011;12542;50.924;4.516;2022-12-18T14:10:31;25.77;;;12.33;;
24407;SDS011;12542;50.924;4.516;2022-12-18T14:12:58;27.20;;;12.10;;
24407;SDS011;12542;50.924;4.516;2022-12-18T14:15:38;29.33;;;13.55;;
24407;SDS011;12542;50.924;4.516;2022-12-18T14:18:26;25.83;;;12.37;;
24407;SDS011;12542;50.924;4.516;2022-12-18T14:21:03;29.48;;;12.00;;
24407;SDS011;12542;50.924;4.516;2022-12-18T14:23:36;23.73;;;10.10;;
24407;SDS011;12542;50.924;4.516;2022-12-18T14:28:52;35.08;;;14.63;;
24407;SDS011;12542;50.924;4.516;2022-12-18T14:31:23;34.85;;;15.05;;
24407;SDS011;12542;50.924;4.516;2022-12-18T14:33:53;33.35;;;15.27;;
24407;SDS011;12542;50.924;4.516;2022-12-18T14:36:21;34.55;;;15.95;;
24407;SDS011;12542;50.924;4.516;2022-12-18T14:38:55;37.10;;;15.50;;
24407;SDS011;12542;50.924;4.516;2022-12-18T14:41:25;28.83;;;13.50;;
24407;SDS011;12542;50.924;4.516;2022-12-18T14:43:52;32.00;;;14.73;;
24407;SDS011;12542;50.924;4.516;2022-12-18T14:48:54;31.45;;;15.68;;
24407;SDS011;12542;50.924;4.516;2022-12-18T14:51:24;31.02;;;15.35;;
24407;SDS011;12542;50.924;4.516;2022-12-18T14:54:00;31.27;;;14.18;;
24407;SDS011;12542;50.924;4.516;2022-12-18T14:58:54;33.50;;;15.25;;
24407;SDS011;12542;50.924;4.516;2022-12-18T15:01:24;30.55;;;12.77;;
24407;SDS011;12542;50.924;4.516;2022-12-18T15:03:53;29.77;;;14.23;;
24407;SDS011;12542;50.924;4.516;2022-12-18T15:06:27;32.75;;;14.68;;
24407;SDS011;12542;50.924;4.516;2022-12-18T15:09:23;33.97;;;15.00;;
24407;SDS011;12542;50.924;4.516;2022-12-18T15:11:49;31.80;;;14.55;;
24407;SDS011;12542;50.924;4.516;2022-12-18T15:17:14;33.33;;;16.25;;
24407;SDS011;12542;50.924;4.516;2022-12-18T15:19:45;34.05;;;13.65;;
24407;SDS011;12542;50.924;4.516;2022-12-18T15:22:31;32.95;;;15.68;;
24407;SDS011;12542;50.924;4.516;2022-12-18T15:25:00;32.28;;;12.35;;
24407;SDS011;12542;50.924;4.516;2022-12-18T15:27:29;31.67;;;14.38;;
24407;SDS011;12542;50.924;4.516;2022-12-18T15:32:39;30.17;;;14.77;;
24407;SDS011;12542;50.924;4.516;2022-12-18T15:35:39;35.78;;;15.32;;
24407;SDS011;12542;50.924;4.516;2022-12-18T15:38:06;31.58;;;14.57;;
24407;SDS011;12542;50.924;4.516;2022-12-18T15:40:32;32.33;;;14.82;;
24407;SDS011;12542;50.924;4.516;2022-12-18T15:42:58;32.42;;;13.30;;
24407;SDS011;12542;50.924;4.516;2022-12-18T15:45:42;27.53;;;12.93;;
24407;SDS011;12542;50.924;4.516;2022-12-18T15:48:19;31.73;;;16.58;;
24407;SDS011;12542;50.924;4.516;2022-12-18T15:50:48;31.73;;;15.15;;
24407;SDS011;12542;50.924;4.516;2022-12-18T15:53:16;34.38;;;16.17;;
24407;SDS011;12542;50.924;4.516;2022-12-18T15:55:43;31.77;;;15.02;;
24407;SDS011;12542;50.924;4.516;2022-12-18T15:58:27;27.55;;;11.48;;
24407;SDS011;12542;50.924;4.516;2022-12-18T16:00:53;33.95;;;16.98;;
24407;SDS011;12542;50.924;4.516;2022-12-18T16:03:22;34.95;;;17.17;;
24407;SDS011;12542;50.924;4.516;2022-12-18T16:05:48;46.47;;;21.42;;
24407;SDS011;12542;50.924;4.516;2022-12-18T16:08:14;34.28;;;16.77;;
24407;SDS011;12542;50.924;4.516;2022-12-18T16:10:39;32.80;;;14.02;;
24407;SDS011;12542;50.924;4.516;2022-12-18T16:13:06;34.50;;;15.57;;
24407;SDS011;12542;50.924;4.516;2022-12-18T16:15:34;32.30;;;15.23;;
24407;SDS011;12542;50.924;4.516;2022-12-18T16:18:01;37.00;;;16.55;;
24407;SDS011;12542;50.924;4.516;2022-12-18T16:20:26;35.55;;;15.63;;
24407;SDS011;12542;50.924;4.516;2022-12-18T16:22:52;38.13;;;17.63;;
24407;SDS011;12542;50.924;4.516;2022-12-18T16:25:20;32.35;;;15.57;;
24407;SDS011;12542;50.924;4.516;2022-12-18T16:27:47;32.58;;;14.57;;
24407;SDS011;12542;50.924;4.516;2022-12-18T16:30:24;29.42;;;14.32;;
24407;SDS011;12542;50.924;4.516;2022-12-18T16:32:52;35.88;;;16.02;;
24407;SDS011;12542;50.924;4.516;2022-12-18T16:35:19;33.45;;;15.68;;
24407;SDS011;12542;50.924;4.516;2022-12-18T16:37:45;35.53;;;14.77;;
24407;SDS011;12542;50.924;4.516;2022-12-18T16:40:13;33.50;;;15.95;;
24407;SDS011;12542;50.924;4.516;2022-12-18T16:42:40;28.27;;;12.85;;
24407;SDS011;12542;50.924;4.516;2022-12-18T16:45:09;33.47;;;14.93;;
24407;SDS011;12542;50.924;4.516;2022-12-18T16:47:37;35.90;;;14.90;;
24407;SDS011;12542;50.924;4.516;2022-12-18T16:50:03;32.60;;;15.73;;